This is the latest recevied weather packets stored in our database for station/object KD5BIG-13. If no packets are shown the sender has not sent any weather packets the latest 1 day(s).
| Time | Temp. | Humidity | Pressure | Rain* | Wind** | Luminosity | Snow |
|---|---|---|---|---|---|---|---|
| 1778103437 | 25° C | 92% | 1013.7 hPa | - | - | 6 W/m² | - |
| 1778103134 | 25° C | 93% | 1012.8 hPa | - | - | 45 W/m² | - |
| 1778101312 | 25° C | 93% | 1013.8 hPa | - | - | 19 W/m² | - |
| 1778097978 | 25.56° C | 89% | 1014.3 hPa | - | - | 29 W/m² | - |
| 1778095249 | 26.67° C | 86% | 1015.2 hPa | - | - | 141 W/m² | - |
| 1778094036 | 26.67° C | 84% | 1015.7 hPa | - | - | 283 W/m² | - |
| 1778093733 | 26.67° C | 85% | 1016 hPa | - | - | 271 W/m² | - |
| 1778093430 | 26.67° C | 84% | 1015.9 hPa | - | - | 147 W/m² | - |
| 1778092520 | 26.67° C | 85% | 1016 hPa | - | - | 324 W/m² | - |
| 1778092217 | 26.67° C | 84% | 1016.1 hPa | - | - | 102 W/m² | - |
| 1778091611 | 27.22° C | 82% | 1016.4 hPa | - | - | 242 W/m² | - |
| 1778091006 | 26.67° C | 84% | 1016.5 hPa | - | - | 309 W/m² | - |
| 1778090399 | 26.67° C | 84% | 1016.3 hPa | - | - | 353 W/m² | - |
| 1778089490 | 26.67° C | 84% | 1016.6 hPa | - | - | 301 W/m² | - |
| 1778087672 | 26.11° C | 87% | 1016.6 hPa | - | - | 282 W/m² | - |
| 1778087370 | 26.11° C | 86% | 1016.6 hPa | - | - | 265 W/m² | - |
| 1778087066 | 26.11° C | 86% | 1016.7 hPa | - | - | 349 W/m² | - |
| 1778086463 | 26.67° C | 86% | 1017 hPa | - | - | 211 W/m² | - |
| 1778085855 | 26.11° C | 88% | 1016.8 hPa | - | - | 331 W/m² | - |
| 1778083129 | 25.56° C | 88% | 1017 hPa | - | - | 188 W/m² | - |
| 1778080492 | 25° C | 89% | 1016.6 hPa | - | - | 76 W/m² | - |
| 1778080189 | 25° C | 89% | 1016.7 hPa | - | - | 59 W/m² | - |
| 1778079885 | 25° C | 88% | 1016.8 hPa | - | - | 56 W/m² | - |
| 1778078672 | 25° C | 88% | 1016.5 hPa | - | - | 120 W/m² | - |
| 1778077766 | 24.44° C | 90% | 1016.6 hPa | - | - | 149 W/m² | - |
* Rain since midnight (hover to see other rain measurements)
** Current wind speed in m/s (hover to see current wind gust speed)